DATA ZE ZPRÁV METAR

Zprávy METAR jsou pravidelné letecké meteorologické zprávy o podmínkách na daném letišti, zejména o stavu oblačnosti, viditelnosti a průběhu počasí v poslední hodině. Na letištích s pravidelným provozem jsou vydávány každých 30 minut, jinak zpravidla jednou za hodinu. Ne každé letiště (zejména komerční) poskytuje zprávy po celých 24 hodin denně. Více o zprávách METAR najdete na této stránce.

Zprávy METAR z letišť v blízkém okolí

LKPR - Praha Ruzyně, Česká republika
Směr a vzdálenost od této stanice: ZJZ 98km
Aktualizováno: 18.08.2018 00:30
Jasno, Jasná obloha
Jasno, Jasná obloha
 Vítr ze směru JZ
Vítr: JZ 6 km/h
Teplota: 20°C
Rosný bod: 10°C
Vlhkost: 53%
Tlak vzduchu: 1017 hPa
Stav počasí: Jasno
Oblačnost: Jasná obloha
Dohlednost: více než 10 km
2018/08/17 22:30 LKPR 172230Z 22003KT CAVOK 20/10 Q1017 NOSIG
LKTB - Brno Tuřany, Česká republika
Směr a vzdálenost od této stanice: JJV 174km
Aktualizováno: 18.08.2018 00:30
Jasno, Jasná obloha
Jasno, Jasná obloha
 Vítr ze směru SV
Vítr: SV 9 km/h
Teplota: 20°C
Rosný bod: 10°C
Vlhkost: 53%
Tlak vzduchu: 1016 hPa
Stav počasí: Jasno
Oblačnost: Jasná obloha
Dohlednost: více než 10 km
2018/08/17 22:30 LKTB 172230Z 04005KT CAVOK 20/10 Q1016 NOSIG
 
LKKV - Karlovy Vary, Česká republika
Směr a vzdálenost od této stanice: Z 187km
Aktualizováno: 18.08.2018 00:00
Jasno, Jasná obloha
Jasno, Jasná obloha
 Vítr ze směru S
Vítr: S 13 km/h
Teplota: 19°C
Rosný bod: 13°C
Vlhkost: 68%
Tlak vzduchu: 1018 hPa
Stav počasí: Jasno
Oblačnost: Jasná obloha
Dohlednost: více než 10 km
2018/08/17 22:00 LKKV 172200Z 36007KT 330V030 CAVOK 19/13 Q1018
LKMT - Ostrava Mošnov, Česká republika
Směr a vzdálenost od této stanice: VJV 208km
Aktualizováno: 18.08.2018 00:30
Jasno, Jasná obloha
Jasno, Jasná obloha
 Vítr ze směru JZ
Vítr: JZ 6 km/h
Teplota: 17°C
Rosný bod: 13°C
Vlhkost: 77%
Tlak vzduchu: 1017 hPa
Stav počasí: Jasno
Oblačnost: Jasná obloha
Dohlednost: více než 10 km
2018/08/17 22:30 LKMT 172230Z 22003KT CAVOK 17/13 Q1017 NOSIG
 
LKPD - Pardubice, Česká republika
Směr a vzdálenost od této stanice: JJV 56km
Aktualizováno: 18.08.2018 00:00
Jasno, Jasná obloha
Jasno, Jasná obloha
 Vítr ze směru V
Vítr: V 2 km/h
Teplota: 19°C
Rosný bod: 8°C
Vlhkost: 49%
Tlak vzduchu: 1016 hPa
Stav počasí: Jasno
Oblačnost: Jasná obloha
Dohlednost: více než 10 km
2018/08/17 22:00 LKPD 172200Z 10001KT CAVOK 19/08 Q1016
LKKB - Praha Kbely, Česká republika
Směr a vzdálenost od této stanice: ZJZ 81km
Aktualizováno: 18.08.2018 00:00
Jasno, Jasná obloha
Jasno, Jasná obloha
 Vítr ze směru proměnlivý
Vítr: proměnlivý 4 km/h
Teplota: 22°C
Rosný bod: 10°C
Vlhkost: 47%
Tlak vzduchu: 1016 hPa
Stav počasí: Jasno
Oblačnost: Jasná obloha
Dohlednost: více než 10 km
2018/08/17 22:00 LKKB 172200Z VRB02KT CAVOK 22/10 Q1016 NOSIG
 
LKCV - Čáslav, Česká republika
Směr a vzdálenost od této stanice: J 63km
Aktualizováno: 18.08.2018 00:00
Jasno, Jasná obloha
Jasno, Jasná obloha
 Vítr ze směru JV
Vítr: JV 4 km/h
Teplota: 21°C
Rosný bod: 11°C
Vlhkost: 53%
Tlak vzduchu: 1016 hPa
Stav počasí: Jasno
Oblačnost: Jasná obloha
Dohlednost: více než 10 km
2018/08/17 22:00 LKCV 172200Z 13002KT CAVOK 21/11 Q1016 NOSIG
LKNA - Náměšť n. Osl., Česká republika
Směr a vzdálenost od této stanice: JJV 154km
Aktualizováno: 18.08.2018 00:00
Jasno, Jasná obloha
Jasno, Jasná obloha
 Vítr ze směru Bezvětří
Vítr: Bezvětří
Teplota: 22°C
Rosný bod: 9°C
Vlhkost: 44%
Tlak vzduchu: 1017 hPa
Stav počasí: Jasno
Oblačnost: Jasná obloha
Dohlednost: více než 10 km
2018/08/17 22:00 LKNA 172200Z 00000KT CAVOK 22/09 Q1017
 
LKLN - Plzeň Líně, Česká republika
Směr a vzdálenost od této stanice: ZJZ 184km
Aktualizováno: 18.08.2018 00:00
Jasno, Jasná obloha
Jasno, Jasná obloha
 Vítr ze směru Bezvětří
Vítr: Bezvětří
Teplota: 19°C
Rosný bod: 10°C
Vlhkost: 56%
Tlak vzduchu: 1017 hPa
Stav počasí: Jasno
Oblačnost: Jasná obloha
Dohlednost: více než 10 km
2018/08/17 22:00 LKLN 172200Z AUTO 00000KT CAVOK 19/10 Q1017
EDDC - Dresden Klotzsch, Německo
Směr a vzdálenost od této stanice: ZSZ 142km
Aktualizováno: 18.08.2018 00:20
Slabý déšť, Přeháňky, Blízká bouřka, Skoro zataženo
Slabý déšť, Přeháňky, Blízká bouřka, Skoro zataženo
 Vítr ze směru ZSZ
Vítr: ZSZ 30 km/h, Náraz: 48 km/h
Teplota: 20°C
Rosný bod: 17°C
Vlhkost: 83%
Tlak vzduchu: 1018 hPa
Stav počasí: Slabý déšť, Přeháňky, Blízká bouřka
Oblačnost: Skoro zataženo
Dohlednost: 10 km
Detaily oblačnosti: Skoro zataženo 1219 m
Skoro zataženo 2743 m
2018/08/17 22:20 EDDC 172220Z 30016G26KT 260V320 9999 -SHRA VCTS BKN040CB BKN090 20/17 Q1018